sensor_id;sensor_type;location;lat;lon;timestamp;pressure;altitude;pressure_sealevel;temperature;humidity
56719;BME280;42597;40.636;0.278;2023-07-29T00:00:45;97116.22;;;27.03;100.00
56719;BME280;42597;40.636;0.278;2023-07-29T00:03:10;97111.19;;;27.11;99.96
56719;BME280;42597;40.636;0.278;2023-07-29T00:05:39;97116.13;;;27.16;99.31
56719;BME280;42597;40.636;0.278;2023-07-29T00:08:05;97117.38;;;27.24;98.69
56719;BME280;42597;40.636;0.278;2023-07-29T00:10:32;97114.75;;;27.20;98.34
56719;BME280;42597;40.636;0.278;2023-07-29T00:12:58;97111.53;;;27.22;97.66
56719;BME280;42597;40.636;0.278;2023-07-29T00:15:23;97107.81;;;27.16;97.83
56719;BME280;42597;40.636;0.278;2023-07-29T00:17:49;97106.94;;;27.37;95.77
56719;BME280;42597;40.636;0.278;2023-07-29T00:20:14;97105.28;;;26.77;99.26
56719;BME280;42597;40.636;0.278;2023-07-29T00:22:40;97102.88;;;27.20;96.75
56719;BME280;42597;40.636;0.278;2023-07-29T00:25:06;97101.88;;;27.04;96.48
56719;BME280;42597;40.636;0.278;2023-07-29T00:27:32;97098.59;;;27.28;94.76
56719;BME280;42597;40.636;0.278;2023-07-29T00:29:58;97094.25;;;26.55;97.46
56719;BME280;42597;40.636;0.278;2023-07-29T00:32:23;97092.50;;;26.71;98.83
56719;BME280;42597;40.636;0.278;2023-07-29T00:34:49;97087.44;;;26.47;97.51
56719;BME280;42597;40.636;0.278;2023-07-29T00:37:14;97092.72;;;26.11;100.00
56719;BME280;42597;40.636;0.278;2023-07-29T00:39:40;97085.34;;;26.61;98.91
56719;BME280;42597;40.636;0.278;2023-07-29T00:42:06;97084.31;;;26.67;97.50
56719;BME280;42597;40.636;0.278;2023-07-29T00:44:32;97079.31;;;26.53;97.86
56719;BME280;42597;40.636;0.278;2023-07-29T00:46:58;97081.00;;;26.06;98.71
56719;BME280;42597;40.636;0.278;2023-07-29T00:49:25;97074.72;;;26.37;98.57
56719;BME280;42597;40.636;0.278;2023-07-29T00:51:51;97078.47;;;26.43;97.49
56719;BME280;42597;40.636;0.278;2023-07-29T00:54:17;97075.09;;;26.17;99.22
56719;BME280;42597;40.636;0.278;2023-07-29T00:56:42;97071.19;;;26.37;98.32
56719;BME280;42597;40.636;0.278;2023-07-29T00:59:08;97070.13;;;26.65;96.53
56719;BME280;42597;40.636;0.278;2023-07-29T01:01:34;97066.50;;;26.77;95.72
56719;BME280;42597;40.636;0.278;2023-07-29T01:03:59;97063.34;;;26.35;97.01
56719;BME280;42597;40.636;0.278;2023-07-29T01:09:48;97057.63;;;26.61;95.30
56719;BME280;42597;40.636;0.278;2023-07-29T01:12:23;97058.13;;;26.68;94.53
56719;BME280;42597;40.636;0.278;2023-07-29T01:15:09;97056.22;;;26.87;93.05
56719;BME280;42597;40.636;0.278;2023-07-29T01:17:42;97054.63;;;26.77;92.44
56719;BME280;42597;40.636;0.278;2023-07-29T01:20:11;97058.06;;;26.50;93.78
56719;BME280;42597;40.636;0.278;2023-07-29T01:22:39;97058.78;;;26.72;92.11
56719;BME280;42597;40.636;0.278;2023-07-29T01:25:05;97055.28;;;26.28;94.48
56719;BME280;42597;40.636;0.278;2023-07-29T01:27:31;97060.09;;;26.58;92.04
56719;BME280;42597;40.636;0.278;2023-07-29T01:29:57;97064.38;;;26.50;92.77
56719;BME280;42597;40.636;0.278;2023-07-29T01:32:41;97058.97;;;26.03;94.27
56719;BME280;42597;40.636;0.278;2023-07-29T01:37:51;97056.91;;;26.38;93.05
56719;BME280;42597;40.636;0.278;2023-07-29T01:40:18;97061.16;;;26.30;94.23
56719;BME280;42597;40.636;0.278;2023-07-29T01:42:44;97057.53;;;26.42;92.47
56719;BME280;42597;40.636;0.278;2023-07-29T01:45:11;97055.88;;;26.23;93.24
56719;BME280;42597;40.636;0.278;2023-07-29T01:47:36;97053.94;;;26.11;93.52
56719;BME280;42597;40.636;0.278;2023-07-29T01:50:06;97052.13;;;26.17;92.06
56719;BME280;42597;40.636;0.278;2023-07-29T01:52:32;97053.78;;;26.36;92.27
56719;BME280;42597;40.636;0.278;2023-07-29T01:54:57;97057.81;;;26.13;93.03
56719;BME280;42597;40.636;0.278;2023-07-29T01:57:23;97056.31;;;25.77;93.26
56719;BME280;42597;40.636;0.278;2023-07-29T01:59:48;97048.59;;;25.94;94.02
56719;BME280;42597;40.636;0.278;2023-07-29T02:02:14;97053.66;;;25.74;95.58
56719;BME280;42597;40.636;0.278;2023-07-29T02:04:39;97054.78;;;26.20;91.49
56719;BME280;42597;40.636;0.278;2023-07-29T02:07:05;97054.44;;;25.27;96.76
56719;BME280;42597;40.636;0.278;2023-07-29T02:09:30;97040.78;;;25.80;94.93
56719;BME280;42597;40.636;0.278;2023-07-29T02:11:57;97046.47;;;25.98;93.20
56719;BME280;42597;40.636;0.278;2023-07-29T02:14:23;97045.44;;;26.27;90.77
56719;BME280;42597;40.636;0.278;2023-07-29T02:16:48;97039.91;;;26.27;90.61
56719;BME280;42597;40.636;0.278;2023-07-29T02:19:14;97041.31;;;25.88;93.52
56719;BME280;42597;40.636;0.278;2023-07-29T02:21:40;97031.53;;;26.18;91.84
56719;BME280;42597;40.636;0.278;2023-07-29T02:24:05;97026.25;;;26.11;91.87
56719;BME280;42597;40.636;0.278;2023-07-29T02:26:31;97033.72;;;25.79;91.51
56719;BME280;42597;40.636;0.278;2023-07-29T02:28:56;97026.44;;;24.23;100.00
56719;BME280;42597;40.636;0.278;2023-07-29T02:31:24;97017.94;;;24.17;100.00
56719;BME280;42597;40.636;0.278;2023-07-29T02:33:50;97017.84;;;25.23;97.76
56719;BME280;42597;40.636;0.278;2023-07-29T02:36:16;97015.22;;;25.76;95.17
56719;BME280;42597;40.636;0.278;2023-07-29T02:38:42;97014.25;;;25.70;94.53
56719;BME280;42597;40.636;0.278;2023-07-29T02:41:09;97010.91;;;25.97;91.79
56719;BME280;42597;40.636;0.278;2023-07-29T02:43:35;97010.44;;;25.89;92.65
56719;BME280;42597;40.636;0.278;2023-07-29T02:46:02;97017.13;;;25.79;93.27
56719;BME280;42597;40.636;0.278;2023-07-29T02:48:28;97011.06;;;25.93;92.34
56719;BME280;42597;40.636;0.278;2023-07-29T02:50:54;97010.22;;;26.05;90.96
56719;BME280;42597;40.636;0.278;2023-07-29T02:53:19;97016.34;;;26.00;91.04
56719;BME280;42597;40.636;0.278;2023-07-29T02:55:45;97007.72;;;25.98;90.79
56719;BME280;42597;40.636;0.278;2023-07-29T02:58:11;97012.56;;;25.85;91.23
56719;BME280;42597;40.636;0.278;2023-07-29T03:00:36;97008.22;;;25.84;90.94
56719;BME280;42597;40.636;0.278;2023-07-29T03:03:02;97011.06;;;25.93;90.41
56719;BME280;42597;40.636;0.278;2023-07-29T03:05:28;97008.16;;;25.97;90.29
56719;BME280;42597;40.636;0.278;2023-07-29T03:07:53;97006.94;;;25.98;88.95
56719;BME280;42597;40.636;0.278;2023-07-29T03:10:19;97008.41;;;26.12;89.79
56719;BME280;42597;40.636;0.278;2023-07-29T03:12:46;97008.88;;;25.88;90.13
56719;BME280;42597;40.636;0.278;2023-07-29T03:15:11;97005.50;;;25.71;90.43
56719;BME280;42597;40.636;0.278;2023-07-29T03:17:37;97008.75;;;25.92;89.13
56719;BME280;42597;40.636;0.278;2023-07-29T03:20:02;97015.44;;;25.81;89.91
56719;BME280;42597;40.636;0.278;2023-07-29T03:22:28;97006.63;;;25.39;90.31
56719;BME280;42597;40.636;0.278;2023-07-29T03:24:53;97007.59;;;25.45;91.76
56719;BME280;42597;40.636;0.278;2023-07-29T03:27:19;97004.72;;;25.71;90.55
56719;BME280;42597;40.636;0.278;2023-07-29T03:29:45;97017.88;;;25.79;89.54
56719;BME280;42597;40.636;0.278;2023-07-29T03:32:11;97008.19;;;25.62;90.38
56719;BME280;42597;40.636;0.278;2023-07-29T03:34:36;97009.44;;;25.48;90.62
56719;BME280;42597;40.636;0.278;2023-07-29T03:37:02;97014.34;;;25.44;90.04
56719;BME280;42597;40.636;0.278;2023-07-29T03:39:28;97009.78;;;25.85;88.29
56719;BME280;42597;40.636;0.278;2023-07-29T03:41:53;97018.88;;;25.73;88.50
56719;BME280;42597;40.636;0.278;2023-07-29T03:44:19;97009.69;;;25.76;88.66
56719;BME280;42597;40.636;0.278;2023-07-29T03:46:44;97010.03;;;25.78;88.42
56719;BME280;42597;40.636;0.278;2023-07-29T03:49:10;97010.03;;;25.78;88.69
56719;BME280;42597;40.636;0.278;2023-07-29T03:51:36;97018.56;;;25.49;89.88
56719;BME280;42597;40.636;0.278;2023-07-29T03:54:02;97018.22;;;25.47;89.06
56719;BME280;42597;40.636;0.278;2023-07-29T03:56:27;97023.44;;;25.67;88.11
56719;BME280;42597;40.636;0.278;2023-07-29T03:58:53;97020.28;;;25.55;88.59
56719;BME280;42597;40.636;0.278;2023-07-29T04:01:19;97023.88;;;25.43;89.44
56719;BME280;42597;40.636;0.278;2023-07-29T04:03:45;97018.66;;;25.80;87.75
56719;BME280;42597;40.636;0.278;2023-07-29T04:06:12;97020.34;;;25.77;87.33
56719;BME280;42597;40.636;0.278;2023-07-29T04:08:37;97020.56;;;25.70;88.01
56719;BME280;42597;40.636;0.278;2023-07-29T04:11:03;97017.09;;;25.57;88.79
56719;BME280;42597;40.636;0.278;2023-07-29T04:13:28;97014.50;;;25.63;88.29
56719;BME280;42597;40.636;0.278;2023-07-29T04:15:54;97011.31;;;25.51;88.59
56719;BME280;42597;40.636;0.278;2023-07-29T04:18:19;97012.88;;;25.52;88.63
56719;BME280;42597;40.636;0.278;2023-07-29T04:20:45;97012.69;;;25.47;88.34
56719;BME280;42597;40.636;0.278;2023-07-29T04:23:10;97013.22;;;25.54;87.55
56719;BME280;42597;40.636;0.278;2023-07-29T04:25:36;97014.84;;;25.30;88.72
56719;BME280;42597;40.636;0.278;2023-07-29T04:28:01;97016.38;;;25.31;88.15
56719;BME280;42597;40.636;0.278;2023-07-29T04:30:28;97025.66;;;25.37;87.91
56719;BME280;42597;40.636;0.278;2023-07-29T04:32:54;97017.78;;;25.35;88.24
56719;BME280;42597;40.636;0.278;2023-07-29T04:35:19;97027.94;;;25.17;88.93
56719;BME280;42597;40.636;0.278;2023-07-29T04:37:45;97024.59;;;25.22;89.25
56719;BME280;42597;40.636;0.278;2023-07-29T04:40:13;97025.56;;;25.28;88.05
56719;BME280;42597;40.636;0.278;2023-07-29T04:42:38;97030.84;;;25.35;87.66
56719;BME280;42597;40.636;0.278;2023-07-29T04:45:04;97030.84;;;25.35;87.52
56719;BME280;42597;40.636;0.278;2023-07-29T04:47:30;97028.28;;;25.53;86.77
56719;BME280;42597;40.636;0.278;2023-07-29T04:49:56;97034.31;;;25.26;88.70
56719;BME280;42597;40.636;0.278;2023-07-29T04:52:21;97038.84;;;25.33;88.27
56719;BME280;42597;40.636;0.278;2023-07-29T04:54:47;97037.06;;;25.26;88.15
56719;BME280;42597;40.636;0.278;2023-07-29T04:57:12;97043.94;;;25.22;88.55
56719;BME280;42597;40.636;0.278;2023-07-29T04:59:38;97042.50;;;25.30;87.95
56719;BME280;42597;40.636;0.278;2023-07-29T05:02:03;97045.41;;;25.14;88.29
56719;BME280;42597;40.636;0.278;2023-07-29T05:04:29;97051.75;;;25.36;87.43
56719;BME280;42597;40.636;0.278;2023-07-29T05:06:54;97048.03;;;25.04;88.67
56719;BME280;42597;40.636;0.278;2023-07-29T05:09:20;97049.50;;;25.09;89.49
56719;BME280;42597;40.636;0.278;2023-07-29T05:11:46;97047.50;;;25.09;88.70
56719;BME280;42597;40.636;0.278;2023-07-29T05:14:16;97045.72;;;24.90;89.01
56719;BME280;42597;40.636;0.278;2023-07-29T05:16:42;97046.59;;;24.07;95.32
56719;BME280;42597;40.636;0.278;2023-07-29T05:19:08;97043.28;;;24.92;90.99
56719;BME280;42597;40.636;0.278;2023-07-29T05:21:34;97042.84;;;25.06;89.24
56719;BME280;42597;40.636;0.278;2023-07-29T05:24:00;97048.59;;;24.06;94.69
56719;BME280;42597;40.636;0.278;2023-07-29T05:26:26;97052.97;;;22.44;100.00
56719;BME280;42597;40.636;0.278;2023-07-29T05:28:51;97054.22;;;23.74;99.68
56719;BME280;42597;40.636;0.278;2023-07-29T05:31:17;97051.28;;;24.23;95.53
56719;BME280;42597;40.636;0.278;2023-07-29T05:33:43;97054.53;;;23.76;97.03
56719;BME280;42597;40.636;0.278;2023-07-29T05:36:08;97052.28;;;23.87;96.72
56719;BME280;42597;40.636;0.278;2023-07-29T05:38:34;97059.25;;;24.33;94.79
56719;BME280;42597;40.636;0.278;2023-07-29T05:40:59;97066.16;;;24.54;92.86
56719;BME280;42597;40.636;0.278;2023-07-29T05:43:26;97057.88;;;24.80;91.62
56719;BME280;42597;40.636;0.278;2023-07-29T05:45:52;97064.63;;;24.79;90.32
56719;BME280;42597;40.636;0.278;2023-07-29T05:48:19;97065.97;;;24.74;90.45
56719;BME280;42597;40.636;0.278;2023-07-29T05:50:45;97067.38;;;24.79;89.58
56719;BME280;42597;40.636;0.278;2023-07-29T05:53:11;97065.50;;;24.76;89.21
56719;BME280;42597;40.636;0.278;2023-07-29T05:55:36;97068.94;;;24.80;89.02
56719;BME280;42597;40.636;0.278;2023-07-29T05:58:02;97071.47;;;24.87;88.66
56719;BME280;42597;40.636;0.278;2023-07-29T06:00:27;97066.88;;;25.09;86.99
56719;BME280;42597;40.636;0.278;2023-07-29T06:02:53;97074.59;;;24.89;88.47
56719;BME280;42597;40.636;0.278;2023-07-29T06:05:18;97076.31;;;25.08;87.91
56719;BME280;42597;40.636;0.278;2023-07-29T06:07:44;97083.75;;;24.86;89.20
56719;BME280;42597;40.636;0.278;2023-07-29T06:10:14;97086.16;;;24.46;92.02
56719;BME280;42597;40.636;0.278;2023-07-29T06:12:44;97086.72;;;24.53;92.74
56719;BME280;42597;40.636;0.278;2023-07-29T06:15:09;97093.06;;;25.05;89.91
56719;BME280;42597;40.636;0.278;2023-07-29T06:17:35;97092.50;;;25.23;88.72
56719;BME280;42597;40.636;0.278;2023-07-29T06:20:01;97099.78;;;25.42;87.99
56719;BME280;42597;40.636;0.278;2023-07-29T06:22:26;97092.22;;;25.55;87.68
56719;BME280;42597;40.636;0.278;2023-07-29T06:24:52;97098.78;;;25.36;88.82
56719;BME280;42597;40.636;0.278;2023-07-29T06:27:17;97100.09;;;25.57;88.12
56719;BME280;42597;40.636;0.278;2023-07-29T06:29:43;97100.59;;;25.65;87.59
56719;BME280;42597;40.636;0.278;2023-07-29T06:32:08;97102.25;;;25.75;86.92
56719;BME280;42597;40.636;0.278;2023-07-29T06:34:34;97097.28;;;25.70;87.01
56719;BME280;42597;40.636;0.278;2023-07-29T06:36:59;97102.47;;;25.68;86.83
56719;BME280;42597;40.636;0.278;2023-07-29T06:39:25;97112.00;;;25.67;86.77
56719;BME280;42597;40.636;0.278;2023-07-29T06:41:50;97112.34;;;25.81;87.08
56719;BME280;42597;40.636;0.278;2023-07-29T06:44:16;97111.50;;;25.46;87.89
56719;BME280;42597;40.636;0.278;2023-07-29T06:46:41;97110.13;;;25.64;87.08
56719;BME280;42597;40.636;0.278;2023-07-29T06:49:07;97108.97;;;25.87;85.66
56719;BME280;42597;40.636;0.278;2023-07-29T06:51:33;97117.25;;;25.99;85.32
56719;BME280;42597;40.636;0.278;2023-07-29T06:54:01;97110.13;;;25.64;86.87
56719;BME280;42597;40.636;0.278;2023-07-29T06:56:27;97122.31;;;26.01;85.25
56719;BME280;42597;40.636;0.278;2023-07-29T06:58:53;97105.28;;;26.02;86.94
56719;BME280;42597;40.636;0.278;2023-07-29T07:01:18;97120.94;;;26.18;85.15
56719;BME280;42597;40.636;0.278;2023-07-29T07:03:44;97114.75;;;26.14;87.63
56719;BME280;42597;40.636;0.278;2023-07-29T07:06:09;97118.34;;;26.24;86.31
56719;BME280;42597;40.636;0.278;2023-07-29T07:08:35;97124.25;;;25.91;87.23
56719;BME280;42597;40.636;0.278;2023-07-29T07:11:00;97115.63;;;26.33;85.59
56719;BME280;42597;40.636;0.278;2023-07-29T07:13:26;97121.34;;;26.51;86.28
56719;BME280;42597;40.636;0.278;2023-07-29T07:15:54;97117.19;;;26.34;86.71
56719;BME280;42597;40.636;0.278;2023-07-29T07:18:20;97123.81;;;26.49;92.30
56719;BME280;42597;40.636;0.278;2023-07-29T07:20:51;97116.59;;;26.39;88.28
56719;BME280;42597;40.636;0.278;2023-07-29T07:23:17;97121.94;;;26.46;92.22
56719;BME280;42597;40.636;0.278;2023-07-29T07:25:43;97119.41;;;26.04;94.89
56719;BME280;42597;40.636;0.278;2023-07-29T07:28:09;97119.59;;;25.88;95.20
56719;BME280;42597;40.636;0.278;2023-07-29T07:30:35;97122.47;;;25.84;93.90
56719;BME280;42597;40.636;0.278;2023-07-29T07:33:04;97123.75;;;26.05;95.68
56719;BME280;42597;40.636;0.278;2023-07-29T07:35:29;97118.06;;;25.87;95.34
56719;BME280;42597;40.636;0.278;2023-07-29T07:37:55;97113.69;;;25.99;95.20
56719;BME280;42597;40.636;0.278;2023-07-29T07:40:20;97121.34;;;26.51;93.62
56719;BME280;42597;40.636;0.278;2023-07-29T07:42:46;97129.66;;;25.95;95.95
56719;BME280;42597;40.636;0.278;2023-07-29T07:45:11;97133.13;;;25.86;96.68
56719;BME280;42597;40.636;0.278;2023-07-29T07:47:37;97133.81;;;25.77;97.89
56719;BME280;42597;40.636;0.278;2023-07-29T07:50:03;97124.59;;;25.93;97.58
56719;BME280;42597;40.636;0.278;2023-07-29T07:52:28;97129.66;;;25.95;97.81
56719;BME280;42597;40.636;0.278;2023-07-29T07:54:54;97130.19;;;26.24;99.50
56719;BME280;42597;40.636;0.278;2023-07-29T07:57:21;97131.25;;;25.83;98.36
56719;BME280;42597;40.636;0.278;2023-07-29T07:59:47;97125.81;;;26.80;97.43
56719;BME280;42597;40.636;0.278;2023-07-29T08:02:12;97133.38;;;25.79;99.30
56719;BME280;42597;40.636;0.278;2023-07-29T08:04:38;97134.31;;;25.98;98.35
56719;BME280;42597;40.636;0.278;2023-07-29T08:07:04;97140.94;;;26.00;98.73
56719;BME280;42597;40.636;0.278;2023-07-29T08:09:29;97132.75;;;26.85;96.90
56719;BME280;42597;40.636;0.278;2023-07-29T08:11:55;97137.03;;;26.32;96.08
56719;BME280;42597;40.636;0.278;2023-07-29T08:14:20;97135.88;;;26.65;96.39
56719;BME280;42597;40.636;0.278;2023-07-29T08:16:46;97139.09;;;26.41;98.17
56719;BME280;42597;40.636;0.278;2023-07-29T08:19:12;97132.94;;;26.90;94.77
56719;BME280;42597;40.636;0.278;2023-07-29T08:21:37;97128.50;;;27.33;95.04
56719;BME280;42597;40.636;0.278;2023-07-29T08:24:05;97142.53;;;26.98;94.32
56719;BME280;42597;40.636;0.278;2023-07-29T08:26:32;97142.53;;;27.79;91.03
56719;BME280;42597;40.636;0.278;2023-07-29T08:28:58;97143.69;;;27.10;91.84
56719;BME280;42597;40.636;0.278;2023-07-29T08:31:23;97131.97;;;26.84;91.56
56719;BME280;42597;40.636;0.278;2023-07-29T08:33:49;97150.25;;;27.03;91.82
56719;BME280;42597;40.636;0.278;2023-07-29T08:36:14;97137.94;;;27.36;91.04
56719;BME280;42597;40.636;0.278;2023-07-29T08:38:40;97139.03;;;27.47;89.92
56719;BME280;42597;40.636;0.278;2023-07-29T08:41:14;97133.22;;;27.73;89.15
56719;BME280;42597;40.636;0.278;2023-07-29T08:43:52;97134.50;;;27.22;88.93
56719;BME280;42597;40.636;0.278;2023-07-29T08:46:19;97136.44;;;27.13;89.74
56719;BME280;42597;40.636;0.278;2023-07-29T08:48:45;97140.53;;;26.68;92.14
56719;BME280;42597;40.636;0.278;2023-07-29T08:51:12;97135.97;;;27.54;87.61
56719;BME280;42597;40.636;0.278;2023-07-29T08:53:39;97139.34;;;26.78;91.36
56719;BME280;42597;40.636;0.278;2023-07-29T08:56:06;97139.88;;;26.64;91.29
56719;BME280;42597;40.636;0.278;2023-07-29T08:58:32;97135.22;;;26.82;90.27
56719;BME280;42597;40.636;0.278;2023-07-29T09:00:58;97127.66;;;27.54;88.70
56719;BME280;42597;40.636;0.278;2023-07-29T09:03:24;97118.16;;;27.92;86.51
56719;BME280;42597;40.636;0.278;2023-07-29T09:05:50;97117.47;;;27.70;86.85
56719;BME280;42597;40.636;0.278;2023-07-29T09:08:16;97117.22;;;27.18;87.66
56719;BME280;42597;40.636;0.278;2023-07-29T09:10:41;97123.16;;;27.48;86.36
56719;BME280;42597;40.636;0.278;2023-07-29T09:13:07;97120.19;;;28.10;87.69
56719;BME280;42597;40.636;0.278;2023-07-29T09:15:34;97125.78;;;27.42;86.62
56719;BME280;42597;40.636;0.278;2023-07-29T09:18:20;97119.28;;;27.45;86.77
56719;BME280;42597;40.636;0.278;2023-07-29T09:20:48;97114.63;;;28.89;80.79
56719;BME280;42597;40.636;0.278;2023-07-29T09:23:14;97116.22;;;27.03;88.44
56719;BME280;42597;40.636;0.278;2023-07-29T09:25:40;97105.19;;;28.35;84.15
56719;BME280;42597;40.636;0.278;2023-07-29T09:28:11;97111.41;;;28.91;83.33
56719;BME280;42597;40.636;0.278;2023-07-29T09:30:41;97109.81;;;28.29;83.25
56719;BME280;42597;40.636;0.278;2023-07-29T09:33:10;97116.03;;;29.03;79.71
56719;BME280;42597;40.636;0.278;2023-07-29T09:35:37;97102.78;;;28.70;80.88
56719;BME280;42597;40.636;0.278;2023-07-29T09:38:03;97123.00;;;27.42;87.71
56719;BME280;42597;40.636;0.278;2023-07-29T09:40:37;97115.47;;;29.23;81.32
56719;BME280;42597;40.636;0.278;2023-07-29T09:43:04;97108.97;;;29.59;77.61
56719;BME280;42597;40.636;0.278;2023-07-29T09:45:30;97106.00;;;29.54;78.51
56719;BME280;42597;40.636;0.278;2023-07-29T09:47:58;97105.75;;;27.66;85.03
56719;BME280;42597;40.636;0.278;2023-07-29T09:50:27;97102.06;;;27.60;86.26
56719;BME280;42597;40.636;0.278;2023-07-29T09:52:54;97104.25;;;28.29;86.80
56719;BME280;42597;40.636;0.278;2023-07-29T09:55:23;97096.56;;;27.87;84.92
56719;BME280;42597;40.636;0.278;2023-07-29T09:58:00;97085.72;;;28.26;84.15
56719;BME280;42597;40.636;0.278;2023-07-29T10:00:31;97096.06;;;29.05;83.40
56719;BME280;42597;40.636;0.278;2023-07-29T10:02:57;97100.38;;;28.54;82.42
56719;BME280;42597;40.636;0.278;2023-07-29T10:05:26;97107.94;;;27.71;87.11
56719;BME280;42597;40.636;0.278;2023-07-29T10:07:52;97097.47;;;28.48;84.30
56719;BME280;42597;40.636;0.278;2023-07-29T10:10:19;97095.28;;;27.70;87.67
56719;BME280;42597;40.636;0.278;2023-07-29T10:12:46;97092.53;;;28.43;87.35
56719;BME280;42597;40.636;0.278;2023-07-29T10:15:12;97093.44;;;28.22;88.88
56719;BME280;42597;40.636;0.278;2023-07-29T10:17:39;97091.66;;;28.70;84.90
56719;BME280;42597;40.636;0.278;2023-07-29T10:20:06;97087.22;;;30.26;79.80
56719;BME280;42597;40.636;0.278;2023-07-29T10:22:40;97089.03;;;28.76;82.76
56719;BME280;42597;40.636;0.278;2023-07-29T10:25:16;97090.91;;;29.93;79.36
56719;BME280;42597;40.636;0.278;2023-07-29T10:27:48;97088.59;;;30.16;77.92
56719;BME280;42597;40.636;0.278;2023-07-29T10:30:14;97085.41;;;30.23;77.83
56719;BME280;42597;40.636;0.278;2023-07-29T10:32:44;97081.94;;;30.43;77.11
56719;BME280;42597;40.636;0.278;2023-07-29T10:35:11;97086.47;;;30.26;76.54
56719;BME280;42597;40.636;0.278;2023-07-29T10:37:37;97086.28;;;30.29;77.12
56719;BME280;42597;40.636;0.278;2023-07-29T10:40:06;97077.34;;;30.40;77.73
56719;BME280;42597;40.636;0.278;2023-07-29T10:42:32;97078.34;;;30.13;77.98
56719;BME280;42597;40.636;0.278;2023-07-29T10:44:58;97080.63;;;30.23;77.04
56719;BME280;42597;40.636;0.278;2023-07-29T10:47:28;97082.44;;;30.27;77.36
56719;BME280;42597;40.636;0.278;2023-07-29T10:49:58;97077.28;;;29.95;77.88
56719;BME280;42597;40.636;0.278;2023-07-29T10:55:03;97078.81;;;28.82;82.27
56719;BME280;42597;40.636;0.278;2023-07-29T10:57:39;97079.09;;;29.50;83.44
56719;BME280;42597;40.636;0.278;2023-07-29T11:00:07;97079.94;;;30.29;81.53
56719;BME280;42597;40.636;0.278;2023-07-29T11:02:35;97076.38;;;29.41;80.50
56719;BME280;42597;40.636;0.278;2023-07-29T11:05:05;97080.03;;;30.34;79.88
56719;BME280;42597;40.636;0.278;2023-07-29T11:07:46;97073.56;;;30.13;80.65
56719;BME280;42597;40.636;0.278;2023-07-29T11:10:12;97066.09;;;30.19;80.27
56719;BME280;42597;40.636;0.278;2023-07-29T11:12:45;97064.53;;;30.63;79.35
56719;BME280;42597;40.636;0.278;2023-07-29T11:17:40;97058.50;;;28.67;84.65
56719;BME280;42597;40.636;0.278;2023-07-29T11:20:07;97059.50;;;28.36;87.49
56719;BME280;42597;40.636;0.278;2023-07-29T11:22:34;97061.00;;;29.31;82.95
56719;BME280;42597;40.636;0.278;2023-07-29T11:25:00;97066.09;;;30.64;77.99
56719;BME280;42597;40.636;0.278;2023-07-29T11:27:26;97069.53;;;30.59;77.66
56719;BME280;42597;40.636;0.278;2023-07-29T11:30:02;97063.47;;;31.05;78.45
56719;BME280;42597;40.636;0.278;2023-07-29T11:32:30;97063.94;;;31.03;78.37
56719;BME280;42597;40.636;0.278;2023-07-29T11:34:57;97055.13;;;30.45;80.25
56719;BME280;42597;40.636;0.278;2023-07-29T11:37:22;97053.38;;;30.63;79.58
56719;BME280;42597;40.636;0.278;2023-07-29T11:39:48;97058.41;;;30.88;77.90
56719;BME280;42597;40.636;0.278;2023-07-29T11:42:14;97070.72;;;30.82;78.71
56719;BME280;42597;40.636;0.278;2023-07-29T11:44:40;97070.50;;;30.70;79.98
56719;BME280;42597;40.636;0.278;2023-07-29T11:47:07;97069.44;;;30.97;78.65
56719;BME280;42597;40.636;0.278;2023-07-29T11:49:34;97059.75;;;30.48;80.42
56719;BME280;42597;40.636;0.278;2023-07-29T11:52:01;97066.47;;;30.86;78.68
56719;BME280;42597;40.636;0.278;2023-07-29T11:54:27;97062.59;;;30.98;79.97
56719;BME280;42597;40.636;0.278;2023-07-29T11:56:53;97068.13;;;30.48;81.42
56719;BME280;42597;40.636;0.278;2023-07-29T11:59:19;97062.81;;;30.21;83.30
56719;BME280;42597;40.636;0.278;2023-07-29T12:01:45;97065.38;;;30.98;80.67
56719;BME280;42597;40.636;0.278;2023-07-29T12:04:11;97065.31;;;30.19;82.77
56719;BME280;42597;40.636;0.278;2023-07-29T12:06:37;97077.38;;;30.01;84.00
56719;BME280;42597;40.636;0.278;2023-07-29T12:09:04;97057.00;;;30.10;83.28
56719;BME280;42597;40.636;0.278;2023-07-29T12:11:30;97063.81;;;30.47;82.51
56719;BME280;42597;40.636;0.278;2023-07-29T12:13:55;97051.66;;;30.65;80.67
56719;BME280;42597;40.636;0.278;2023-07-29T12:16:21;97054.75;;;30.82;80.21
56719;BME280;42597;40.636;0.278;2023-07-29T12:18:47;97051.41;;;29.95;81.33
56719;BME280;42597;40.636;0.278;2023-07-29T12:21:14;97051.03;;;29.87;78.32
56719;BME280;42597;40.636;0.278;2023-07-29T12:23:40;97041.13;;;30.40;84.54
56719;BME280;42597;40.636;0.278;2023-07-29T12:26:05;97041.88;;;30.40;82.54
56719;BME280;42597;40.636;0.278;2023-07-29T12:28:31;97039.09;;;29.72;82.92
56719;BME280;42597;40.636;0.278;2023-07-29T12:30:59;97033.28;;;29.61;82.97
56719;BME280;42597;40.636;0.278;2023-07-29T12:33:32;97032.44;;;30.23;85.30
56719;BME280;42597;40.636;0.278;2023-07-29T12:35:58;97034.31;;;29.87;86.04
56719;BME280;42597;40.636;0.278;2023-07-29T12:38:27;97034.53;;;30.87;80.63
56719;BME280;42597;40.636;0.278;2023-07-29T12:40:53;97033.50;;;30.85;79.16
56719;BME280;42597;40.636;0.278;2023-07-29T12:43:19;97034.56;;;30.28;81.89
56719;BME280;42597;40.636;0.278;2023-07-29T12:45:44;97034.28;;;30.41;81.36
56719;BME280;42597;40.636;0.278;2023-07-29T12:48:10;97039.16;;;30.31;80.63
56719;BME280;42597;40.636;0.278;2023-07-29T12:50:37;97035.16;;;30.32;81.10
56719;BME280;42597;40.636;0.278;2023-07-29T12:53:02;97032.63;;;30.34;81.44
56719;BME280;42597;40.636;0.278;2023-07-29T12:55:28;97022.81;;;30.54;79.98
56719;BME280;42597;40.636;0.278;2023-07-29T12:57:53;97032.06;;;30.75;78.91
56719;BME280;42597;40.636;0.278;2023-07-29T13:00:19;97035.91;;;30.77;78.81
56719;BME280;42597;40.636;0.278;2023-07-29T13:02:44;97037.44;;;30.48;79.72
56719;BME280;42597;40.636;0.278;2023-07-29T13:05:11;97027.25;;;30.45;80.39
56719;BME280;42597;40.636;0.278;2023-07-29T13:07:40;97033.78;;;30.57;79.85